createdAt,value
2018-06-11T00:01:32.160Z,42.50
2018-06-11T00:04:04.759Z,46.30
2018-06-11T00:06:36.153Z,45.47
2018-06-11T00:09:08.415Z,50.00
2018-06-11T00:11:40.410Z,48.50
2018-06-11T00:14:12.535Z,62.70
2018-06-11T00:16:43.741Z,57.67
2018-06-11T00:19:15.596Z,55.77
2018-06-11T00:21:47.353Z,62.23
2018-06-11T00:24:18.781Z,54.87
2018-06-11T00:26:49.895Z,53.47
2018-06-11T00:29:21.929Z,47.93
2018-06-11T00:31:53.999Z,54.80
2018-06-11T00:34:28.205Z,48.00
2018-06-11T00:36:59.537Z,48.03
2018-06-11T00:39:31.644Z,46.27
2018-06-11T00:42:03.605Z,44.77
2018-06-11T00:44:34.831Z,45.53
2018-06-11T00:47:05.935Z,51.67
2018-06-11T00:49:37.729Z,54.13
2018-06-11T00:52:09.361Z,55.57
2018-06-11T00:54:40.666Z,51.57
2018-06-11T00:57:12.075Z,53.00
2018-06-11T00:59:43.932Z,54.47
2018-06-11T01:02:15.217Z,60.30
2018-06-11T01:04:46.387Z,51.37
2018-06-11T01:07:18.980Z,47.80
2018-06-11T01:10:04.764Z,48.87
2018-06-11T01:12:35.316Z,55.57
2018-06-11T01:15:06.536Z,54.63
2018-06-11T01:17:38.378Z,53.60
2018-06-11T01:20:10.038Z,57.87
2018-06-11T01:22:41.201Z,58.30
2018-06-11T01:25:12.473Z,62.40
2018-06-11T01:27:44.568Z,63.77
2018-06-11T01:30:15.978Z,63.17
2018-06-11T01:32:47.332Z,71.57
2018-06-11T01:35:19.950Z,69.00
2018-06-11T01:37:51.904Z,61.97
2018-06-11T01:40:23.384Z,60.43
2018-06-11T01:42:54.709Z,66.77
2018-06-11T01:45:26.730Z,65.00
2018-06-11T01:47:58.814Z,62.40
2018-06-11T01:50:30.718Z,56.10
2018-06-11T01:53:02.069Z,72.30
2018-06-11T01:55:34.055Z,62.37
2018-06-11T01:58:06.106Z,63.97
2018-06-11T02:00:37.311Z,69.40
2018-06-11T02:03:08.728Z,65.87
2018-06-11T02:05:40.641Z,85.13
2018-06-11T02:08:12.113Z,82.00
2018-06-11T02:10:43.338Z,81.43
2018-06-11T02:13:14.566Z,76.57
2018-06-11T02:15:47.256Z,77.10
2018-06-11T02:18:18.628Z,80.13
2018-06-11T02:20:50.037Z,74.43
2018-06-11T02:23:22.069Z,84.17
2018-06-11T02:25:54.172Z,88.90
2018-06-11T02:28:25.521Z,82.33
2018-06-11T02:30:56.931Z,88.93
2018-06-11T02:33:29.653Z,87.93
2018-06-11T02:36:01.545Z,86.40
2018-06-11T02:38:33.284Z,83.57
2018-06-11T02:41:04.657Z,87.57
2018-06-11T02:43:36.636Z,87.83
2018-06-11T02:46:09.072Z,85.77
2018-06-11T02:48:40.223Z,91.80
2018-06-11T02:51:11.381Z,88.33
2018-06-11T02:53:43.575Z,77.50
2018-06-11T02:56:15.720Z,74.27
2018-06-11T02:58:47.094Z,79.17
2018-06-11T03:01:19.097Z,75.17
2018-06-11T03:03:51.002Z,67.17
2018-06-11T03:06:22.284Z,62.60
2018-06-11T03:08:53.516Z,67.80
2018-06-11T03:11:25.372Z,70.53
2018-06-11T03:13:56.976Z,71.23
2018-06-11T03:16:28.458Z,79.00
2018-06-11T03:18:59.728Z,87.13
2018-06-11T03:21:31.512Z,80.37
2018-06-11T03:24:08.449Z,94.87
2018-06-11T03:26:39.865Z,83.67
2018-06-11T03:29:11.232Z,85.37
2018-06-11T03:31:43.452Z,84.60
2018-06-11T03:34:14.649Z,86.43
2018-06-11T03:36:46.029Z,82.57
2018-06-11T03:39:18.128Z,95.40
2018-06-11T03:41:50.005Z,89.60
2018-06-11T03:44:21.287Z,92.60
2018-06-11T03:46:53.324Z,120.47
2018-06-11T03:49:25.816Z,89.23
2018-06-11T03:51:57.677Z,79.43
2018-06-11T03:54:30.430Z,77.40
2018-06-11T03:57:01.676Z,77.27
2018-06-11T03:59:33.520Z,81.00
2018-06-11T04:02:07.662Z,77.77
2018-06-11T04:04:39.962Z,83.73
2018-06-11T04:07:11.296Z,84.60
2018-06-11T04:09:43.205Z,72.77
2018-06-11T04:12:15.438Z,80.80
2018-06-11T04:14:46.786Z,74.43
2018-06-11T04:17:19.222Z,77.43
2018-06-11T04:19:50.940Z,75.87
2018-06-11T04:22:22.258Z,71.93
2018-06-11T04:24:53.714Z,75.33
2018-06-11T04:27:25.830Z,70.67
2018-06-11T04:29:58.098Z,72.63
2018-06-11T04:32:29.766Z,70.03
2018-06-11T04:35:04.642Z,72.37
2018-06-11T04:37:39.949Z,66.63
2018-06-11T04:40:14.158Z,67.03
2018-06-11T04:42:45.690Z,71.80
2018-06-11T04:45:17.866Z,81.57
2018-06-11T04:47:50.010Z,81.43
2018-06-11T04:50:21.235Z,85.90
2018-06-11T04:52:53.502Z,87.00
2018-06-11T04:55:25.868Z,75.47
2018-06-11T04:57:58.050Z,89.50
2018-06-11T05:00:28.444Z,75.73
2018-06-11T05:03:01.302Z,80.47
2018-06-11T05:05:33.296Z,69.17
2018-06-11T05:08:06.736Z,73.63
2018-06-11T05:10:39.160Z,76.10
2018-06-11T05:13:10.796Z,78.57
2018-06-11T05:15:43.598Z,72.20
2018-06-11T05:18:15.780Z,69.17
2018-06-11T05:20:47.195Z,66.50
2018-06-11T05:23:19.408Z,70.00
2018-06-11T05:25:54.406Z,66.93
2018-06-11T05:28:25.972Z,64.80
2018-06-11T05:30:58.654Z,65.47
2018-06-11T05:33:31.720Z,66.47
2018-06-11T05:36:03.926Z,66.47
2018-06-11T05:38:35.719Z,65.47
2018-06-11T05:41:07.763Z,54.47
2018-06-11T05:43:39.964Z,56.30
2018-06-11T05:46:12.078Z,59.25
2018-06-11T05:48:43.718Z,61.87
2018-06-11T05:51:16.757Z,58.40
2018-06-11T05:53:49.362Z,58.55
2018-06-11T05:56:20.981Z,60.98
2018-06-11T05:58:52.557Z,58.43
2018-06-11T06:01:24.739Z,58.90
2018-06-11T06:03:58.235Z,60.63
2018-06-11T06:06:29.720Z,61.73
2018-06-11T06:09:01.142Z,61.83
2018-06-11T06:11:33.582Z,60.40
2018-06-11T06:14:05.848Z,60.90
2018-06-11T06:16:37.279Z,61.45
2018-06-11T06:19:08.813Z,60.43
2018-06-11T06:21:41.510Z,61.33
2018-06-11T06:24:13.506Z,62.40
2018-06-11T06:26:46.224Z,61.03
2018-06-11T06:29:19.029Z,60.43
2018-06-11T06:31:51.119Z,59.30
2018-06-11T06:34:23.714Z,60.30
2018-06-11T06:36:56.116Z,56.53
2018-06-11T06:39:28.572Z,58.52
2018-06-11T06:42:00.728Z,58.33
2018-06-11T06:44:32.114Z,57.70
2018-06-11T06:47:03.548Z,62.70
2018-06-11T06:49:36.360Z,57.45
2018-06-11T06:52:09.156Z,59.45
2018-06-11T06:54:40.715Z,57.27
2018-06-11T06:57:13.405Z,56.55
2018-06-11T06:59:46.454Z,56.33
2018-06-11T07:02:18.366Z,55.48
2018-06-11T07:04:50.868Z,56.40
2018-06-11T07:07:23.528Z,55.78
2018-06-11T07:09:56.448Z,55.58
2018-06-11T07:12:28.424Z,55.15
2018-06-11T07:15:00.374Z,55.15
2018-06-11T07:17:33.451Z,54.85
2018-06-11T07:20:06.186Z,53.13
2018-06-11T07:22:38.168Z,53.28
2018-06-11T07:25:10.232Z,52.20
2018-06-11T07:27:43.000Z,49.88
2018-06-11T07:30:15.655Z,52.98
2018-06-11T07:32:47.514Z,50.33
2018-06-11T07:35:20.220Z,47.70
2018-06-11T07:37:53.607Z,45.92
2018-06-11T07:40:26.880Z,46.92
2018-06-11T07:42:59.848Z,46.25
2018-06-11T07:45:32.191Z,47.05
2018-06-11T07:48:05.033Z,44.88
2018-06-11T07:50:37.300Z,42.48
2018-06-11T07:53:09.624Z,42.58
2018-06-11T07:55:42.266Z,41.70
2018-06-11T07:58:14.616Z,43.00
2018-06-11T08:00:46.570Z,41.33
2018-06-11T08:03:19.828Z,43.98
2018-06-11T08:05:52.386Z,44.85
2018-06-11T08:08:24.408Z,43.08
2018-06-11T08:10:56.672Z,42.30
2018-06-11T08:13:29.202Z,39.50
2018-06-11T08:16:02.617Z,41.35
2018-06-11T08:18:34.905Z,40.90
2018-06-11T08:21:07.388Z,43.13
2018-06-11T08:23:40.072Z,44.18
2018-06-11T08:26:12.446Z,42.88
2018-06-11T08:28:44.316Z,44.05
2018-06-11T08:31:17.140Z,44.10
2018-06-11T08:33:49.739Z,43.20
2018-06-11T08:36:23.116Z,45.15
2018-06-11T08:38:55.123Z,47.67
2018-06-11T08:41:28.123Z,49.60
2018-06-11T08:44:00.822Z,50.35
2018-06-11T08:46:32.902Z,52.58
2018-06-11T08:49:05.236Z,49.73
2018-06-11T08:51:37.608Z,46.85
2018-06-11T08:54:10.426Z,45.73
2018-06-11T08:56:42.498Z,45.23
2018-06-11T08:59:15.452Z,46.25
2018-06-11T09:01:48.744Z,47.50
2018-06-11T09:04:20.802Z,45.10
2018-06-11T09:06:52.882Z,42.48
2018-06-11T09:09:25.445Z,38.58
2018-06-11T09:11:58.298Z,40.88
2018-06-11T09:14:30.484Z,38.35
2018-06-11T09:17:03.930Z,38.85
2018-06-11T09:19:39.977Z,38.20
2018-06-11T09:22:12.338Z,39.98
2018-06-11T09:24:44.798Z,37.80
2018-06-11T09:27:17.635Z,37.83
2018-06-11T09:29:50.526Z,38.20
2018-06-11T09:32:22.718Z,36.50
2018-06-11T09:34:54.888Z,36.17
2018-06-11T09:37:27.632Z,34.27
2018-06-11T09:40:01.208Z,33.58
2018-06-11T09:42:32.927Z,35.35
2018-06-11T09:45:05.096Z,36.73
2018-06-11T09:47:37.946Z,35.58
2018-06-11T09:50:13.157Z,37.88
2018-06-11T09:52:45.180Z,38.60
2018-06-11T09:55:17.105Z,39.05
2018-06-11T09:57:49.733Z,37.40
2018-06-11T10:00:26.965Z,35.73
2018-06-11T10:02:58.967Z,40.70
2018-06-11T10:05:31.508Z,38.60
2018-06-11T10:08:05.391Z,38.20
2018-06-11T10:10:38.546Z,39.10
2018-06-11T10:13:14.924Z,38.08
2018-06-11T10:15:48.218Z,37.98
2018-06-11T10:18:20.226Z,39.38
2018-06-11T10:20:52.645Z,38.75
2018-06-11T10:23:25.738Z,36.42
2018-06-11T10:25:58.344Z,41.15
2018-06-11T10:28:30.287Z,38.15
2018-06-11T10:31:02.326Z,39.10
2018-06-11T10:33:35.023Z,40.50
2018-06-11T10:36:07.731Z,40.23
2018-06-11T10:38:39.694Z,38.63
2018-06-11T10:41:11.463Z,40.33
2018-06-11T10:43:44.097Z,38.78
2018-06-11T10:46:16.296Z,39.05
2018-06-11T10:48:49.802Z,38.98
2018-06-11T10:51:22.996Z,39.03
2018-06-11T10:53:55.374Z,71.33
2018-06-11T10:56:27.869Z,38.88
2018-06-11T10:58:59.894Z,39.48
2018-06-11T11:01:32.539Z,40.90
2018-06-11T11:04:05.221Z,38.58
2018-06-11T11:06:37.089Z,41.02
2018-06-11T11:09:09.172Z,43.42
2018-06-11T11:11:41.930Z,40.80
2018-06-11T11:14:14.810Z,39.78
2018-06-11T11:16:47.366Z,41.68
2018-06-11T11:19:20.149Z,44.98
2018-06-11T11:21:53.361Z,40.67
2018-06-11T11:24:25.544Z,41.88
2018-06-11T11:26:58.866Z,40.50
2018-06-11T11:29:32.073Z,41.55
2018-06-11T11:32:05.726Z,39.73
2018-06-11T11:34:37.822Z,42.43
2018-06-11T11:37:09.631Z,40.52
2018-06-11T11:39:42.200Z,39.50
2018-06-11T11:42:14.820Z,38.78
2018-06-11T11:44:46.868Z,38.38
2018-06-11T11:47:19.908Z,40.30
2018-06-11T11:49:52.568Z,41.65
2018-06-11T11:52:24.613Z,38.75
2018-06-11T11:54:56.573Z,35.83
2018-06-11T11:57:29.778Z,36.20
2018-06-11T12:00:02.797Z,35.38
2018-06-11T12:02:34.791Z,37.33
2018-06-11T12:05:06.901Z,35.80
2018-06-11T12:07:39.768Z,36.93
2018-06-11T12:10:12.095Z,35.28
2018-06-11T12:12:44.539Z,33.98
2018-06-11T12:15:17.196Z,34.30
2018-06-11T12:17:49.932Z,32.83
2018-06-11T12:20:21.937Z,35.43
2018-06-11T12:22:54.051Z,35.80
2018-06-11T12:25:26.833Z,30.77
2018-06-11T12:27:59.616Z,32.73
2018-06-11T12:30:31.740Z,31.20
2018-06-11T12:33:03.599Z,32.08
2018-06-11T12:35:36.827Z,30.23
2018-06-11T12:38:09.949Z,30.90
2018-06-11T12:40:42.039Z,30.48
2018-06-11T12:43:14.040Z,30.23
2018-06-11T12:45:46.974Z,32.00
2018-06-11T12:48:18.979Z,32.15
2018-06-11T12:50:51.482Z,34.20
2018-06-11T12:53:24.261Z,32.48
2018-06-11T12:55:56.720Z,31.30
2018-06-11T12:58:28.590Z,31.12
2018-06-11T13:01:00.609Z,31.65
2018-06-11T13:03:33.276Z,31.00
2018-06-11T13:06:07.346Z,32.17
2018-06-11T13:08:40.631Z,30.35
2018-06-11T13:11:13.877Z,29.65
2018-06-11T13:13:46.628Z,29.35
2018-06-11T13:16:19.769Z,30.95
2018-06-11T13:18:52.206Z,30.95
2018-06-11T13:21:24.954Z,30.17
2018-06-11T13:23:57.558Z,31.50
2018-06-11T13:26:29.691Z,32.88
2018-06-11T13:29:01.907Z,33.23
2018-06-11T13:31:34.670Z,31.60
2018-06-11T13:34:07.266Z,30.08
2018-06-11T13:36:39.230Z,31.07
2018-06-11T13:39:11.298Z,29.65
2018-06-11T13:41:44.169Z,31.93
2018-06-11T13:44:16.202Z,31.05
2018-06-11T13:46:48.614Z,31.48
2018-06-11T13:49:21.636Z,29.90
2018-06-11T13:51:54.900Z,31.20
2018-06-11T13:54:26.101Z,32.53
2018-06-11T13:56:58.251Z,31.10
2018-06-11T13:59:31.398Z,31.55
2018-06-11T14:02:04.322Z,30.82
2018-06-11T14:04:37.582Z,29.82
2018-06-11T14:07:09.584Z,28.70
2018-06-11T14:09:42.054Z,29.40
2018-06-11T14:12:14.840Z,30.45
2018-06-11T14:14:46.837Z,29.02
2018-06-11T14:17:19.550Z,29.25
2018-06-11T14:19:53.643Z,29.02
2018-06-11T14:22:51.325Z,29.20
2018-06-11T14:25:24.908Z,28.50
2018-06-11T14:27:58.600Z,29.18
2018-06-11T14:30:30.491Z,28.87
2018-06-11T14:33:03.719Z,30.08
2018-06-11T14:35:36.450Z,30.05
2018-06-11T14:38:09.943Z,31.07
2018-06-11T14:40:41.782Z,30.15
2018-06-11T14:43:13.820Z,29.07
2018-06-11T14:45:46.496Z,28.80
2018-06-11T14:48:19.202Z,31.40
2018-06-11T14:50:51.077Z,30.30
2018-06-11T14:53:24.353Z,30.02
2018-06-11T14:55:58.751Z,32.23
2018-06-11T14:58:30.796Z,31.62
2018-06-11T15:01:03.362Z,31.02
2018-06-11T15:03:35.988Z,30.77
2018-06-11T15:06:09.318Z,30.57
2018-06-11T15:08:41.984Z,28.52
2018-06-11T15:11:13.896Z,34.95
2018-06-11T15:13:47.070Z,30.35
2018-06-11T15:16:19.648Z,30.77
2018-06-11T15:18:52.469Z,32.03
2018-06-11T15:21:28.719Z,32.35
2018-06-11T15:24:24.238Z,34.58
2018-06-11T15:27:19.049Z,32.85
2018-06-11T15:29:54.220Z,31.07
2018-06-11T15:32:26.318Z,32.75
2018-06-11T15:34:59.592Z,31.57
2018-06-11T15:37:32.688Z,32.05
2018-06-11T15:40:05.780Z,33.23
2018-06-11T15:42:37.838Z,32.90
2018-06-11T15:45:10.671Z,32.67
2018-06-11T15:47:43.810Z,33.05
2018-06-11T15:50:16.220Z,32.38
2018-06-11T15:52:49.539Z,33.13
2018-06-11T15:55:22.489Z,33.08
2018-06-11T15:57:56.766Z,34.98
2018-06-11T16:00:29.236Z,32.78
2018-06-11T16:03:02.159Z,34.25
2018-06-11T16:05:35.588Z,32.78
2018-06-11T16:08:08.748Z,37.23
2018-06-11T16:10:41.835Z,36.93
2018-06-11T16:13:13.867Z,34.18
2018-06-11T16:15:47.030Z,36.08
2018-06-11T16:18:20.708Z,37.20
2018-06-11T16:20:53.685Z,33.23
2018-06-11T16:23:26.729Z,37.03
2018-06-11T16:25:59.981Z,36.53
2018-06-11T16:28:32.038Z,36.03
2018-06-11T16:31:05.297Z,37.65
2018-06-11T16:33:38.464Z,34.95
2018-06-11T16:36:11.125Z,34.98
2018-06-11T16:38:43.206Z,36.35
2018-06-11T16:41:15.837Z,35.52
2018-06-11T16:43:49.224Z,35.10
2018-06-11T16:46:23.780Z,34.40
2018-06-11T16:48:56.046Z,34.33
2018-06-11T16:51:29.413Z,34.10
2018-06-11T16:54:02.750Z,38.55
2018-06-11T16:56:34.885Z,35.92
2018-06-11T16:59:06.840Z,34.18
2018-06-11T17:01:39.647Z,35.43
2018-06-11T17:04:11.876Z,37.13
2018-06-11T17:06:45.072Z,37.25
2018-06-11T17:09:18.033Z,36.33
2018-06-11T17:11:50.640Z,38.02
2018-06-11T17:14:22.695Z,37.35
2018-06-11T17:16:54.550Z,35.20
2018-06-11T17:19:27.339Z,35.63
2018-06-11T17:21:59.934Z,38.48
2018-06-11T17:24:31.821Z,35.92
2018-06-11T17:27:03.725Z,38.17
2018-06-11T17:29:36.326Z,38.10
2018-06-11T17:32:10.063Z,39.63
2018-06-11T17:34:43.271Z,38.25
2018-06-11T17:37:17.138Z,37.65
2018-06-11T17:39:49.792Z,42.67
2018-06-11T17:42:22.376Z,42.27
2018-06-11T17:44:54.648Z,39.50
2018-06-11T17:47:27.480Z,41.25
2018-06-11T17:50:00.208Z,40.73
2018-06-11T17:52:33.578Z,40.67
2018-06-11T17:55:05.732Z,40.83
2018-06-11T17:57:38.453Z,41.10
2018-06-11T18:00:11.954Z,38.20
2018-06-11T18:02:45.740Z,39.90
2018-06-11T18:05:18.747Z,39.50
2018-06-11T18:07:51.626Z,38.15
2018-06-11T18:10:23.748Z,39.18
2018-06-11T18:12:56.370Z,35.05
2018-06-11T18:15:29.106Z,37.50
2018-06-11T18:18:01.899Z,36.03
2018-06-11T18:20:34.473Z,33.13
2018-06-11T18:23:06.834Z,32.03
2018-06-11T18:25:44.692Z,35.35
2018-06-11T18:28:16.864Z,33.95
2018-06-11T18:30:48.776Z,33.50
2018-06-11T18:33:21.515Z,34.65
2018-06-11T18:35:54.349Z,34.53
2018-06-11T18:38:26.572Z,32.88
2018-06-11T18:40:59.980Z,33.15
2018-06-11T18:43:32.494Z,34.65
2018-06-11T18:46:07.678Z,33.33
2018-06-11T18:48:39.860Z,34.10
2018-06-11T18:51:12.074Z,31.62
2018-06-11T18:53:44.948Z,31.12
2018-06-11T18:56:17.146Z,29.57
2018-06-11T18:58:49.324Z,30.70
2018-06-11T19:01:21.502Z,31.17
2018-06-11T19:03:54.471Z,31.33
2018-06-11T19:06:26.444Z,31.70
2018-06-11T19:08:58.631Z,32.03
2018-06-11T19:11:34.992Z,30.55
2018-06-11T19:14:08.204Z,31.93
2018-06-11T19:16:40.603Z,30.23
2018-06-11T19:19:13.156Z,30.08
2018-06-11T19:21:45.698Z,29.80
2018-06-11T19:24:18.131Z,29.75
2018-06-11T19:26:50.318Z,30.10
2018-06-11T19:29:23.360Z,31.93
2018-06-11T19:31:56.481Z,31.55
2018-06-11T19:34:28.517Z,29.75
2018-06-11T19:37:00.413Z,29.35
2018-06-11T19:39:33.353Z,28.65
2018-06-11T19:42:06.396Z,28.87
2018-06-11T19:44:38.854Z,28.50
2018-06-11T19:47:10.794Z,28.75
2018-06-11T19:49:43.450Z,28.25
2018-06-11T19:52:15.762Z,30.35
2018-06-11T19:54:47.900Z,31.62
2018-06-11T19:57:21.706Z,30.80
2018-06-11T19:59:54.968Z,30.00
2018-06-11T20:02:27.232Z,28.80
2018-06-11T20:04:59.278Z,25.62
2018-06-11T20:07:32.581Z,27.77
2018-06-11T20:10:05.426Z,25.92
2018-06-11T20:12:37.716Z,24.18
2018-06-11T20:15:09.857Z,24.90
2018-06-11T20:17:42.527Z,23.65
2018-06-11T20:20:15.362Z,23.40
2018-06-11T20:22:48.586Z,23.27
2018-06-11T20:25:22.126Z,23.18
2018-06-11T20:27:54.784Z,20.43
2018-06-11T20:30:26.881Z,21.05
2018-06-11T20:32:58.823Z,22.77
2018-06-11T20:35:31.518Z,20.20
2018-06-11T20:38:04.470Z,21.10
2018-06-11T20:40:36.507Z,21.48
2018-06-11T20:43:08.502Z,21.20
2018-06-11T20:45:41.153Z,22.58
2018-06-11T20:48:16.707Z,22.58
2018-06-11T20:50:48.809Z,23.30
2018-06-11T20:53:22.090Z,22.10
2018-06-11T20:55:54.294Z,23.25
2018-06-11T20:58:26.834Z,22.45
2018-06-11T21:00:59.101Z,25.27
2018-06-11T21:03:32.099Z,25.70
2018-06-11T21:06:05.797Z,23.65
2018-06-11T21:08:37.699Z,24.55
2018-06-11T21:11:09.602Z,25.37
2018-06-11T21:13:42.289Z,23.32
2018-06-11T21:16:15.061Z,22.90
2018-06-11T21:18:46.981Z,23.20
2018-06-11T21:21:19.618Z,24.87
2018-06-11T21:23:52.399Z,23.92
2018-06-11T21:26:24.405Z,23.70
2018-06-11T21:28:56.305Z,24.15
2018-06-11T21:31:29.841Z,23.27
2018-06-11T21:34:02.632Z,23.55
2018-06-11T21:36:34.715Z,22.32
2018-06-11T21:39:08.808Z,20.92
2018-06-11T21:41:41.331Z,20.70
2018-06-11T21:44:14.280Z,20.43
2018-06-11T21:46:46.063Z,20.05
2018-06-11T21:49:18.707Z,20.00
2018-06-11T21:51:51.235Z,17.42
2018-06-11T21:54:23.058Z,16.62
2018-06-11T21:56:54.942Z,16.65
2018-06-11T21:59:28.722Z,15.78
2018-06-11T22:02:01.541Z,15.93
2018-06-11T22:04:33.218Z,16.02
2018-06-11T22:07:06.385Z,15.63
2018-06-11T22:09:38.762Z,14.70
2018-06-11T22:12:10.988Z,15.95
2018-06-11T22:14:42.320Z,15.50
2018-06-11T22:17:13.688Z,20.40
2018-06-11T22:19:45.971Z,16.60
2018-06-11T22:22:17.929Z,17.25
2018-06-11T22:24:49.987Z,20.88
2018-06-11T22:27:21.991Z,20.03
2018-06-11T22:29:54.434Z,20.70
2018-06-11T22:32:25.756Z,20.80
2018-06-11T22:34:56.924Z,23.03
2018-06-11T22:37:28.984Z,20.50
2018-06-11T22:40:01.096Z,21.97
2018-06-11T22:42:32.365Z,21.03
2018-06-11T22:45:04.189Z,22.47
2018-06-11T22:47:36.292Z,20.33
2018-06-11T22:50:08.290Z,20.90
2018-06-11T22:52:40.109Z,26.67
2018-06-11T22:55:11.438Z,28.70
2018-06-11T22:57:43.556Z,31.20
2018-06-11T23:00:25.079Z,30.87
2018-06-11T23:02:55.977Z,34.60
2018-06-11T23:05:28.163Z,27.63
2018-06-11T23:08:00.142Z,29.17
2018-06-11T23:10:31.349Z,30.40
2018-06-11T23:13:02.594Z,33.00
2018-06-11T23:15:34.646Z,30.93
2018-06-11T23:18:06.905Z,26.67
2018-06-11T23:20:38.384Z,27.60
2018-06-11T23:23:09.765Z,31.73
2018-06-11T23:25:41.704Z,30.50
2018-06-11T23:28:14.272Z,38.03
2018-06-11T23:30:45.511Z,32.40
2018-06-11T23:33:17.506Z,33.63
2018-06-11T23:35:49.362Z,37.47
2018-06-11T23:38:20.705Z,34.10
2018-06-11T23:40:51.912Z,28.23
2018-06-11T23:43:24.512Z,25.43
2018-06-11T23:45:56.622Z,27.43
2018-06-11T23:48:27.928Z,30.67
2018-06-11T23:50:59.306Z,32.67
2018-06-11T23:53:31.334Z,35.67
2018-06-11T23:56:03.139Z,35.53
2018-06-11T23:58:34.541Z,34.80
